Terminal Aerodrome Forecast
Issued by NWS North Platte, NE

Home | Current Version | Previous Version | Text Only | Print | Product List | Glossary On
Versions: 1 2 3 4 5 6 7 8 9 10 11 12 13 14 15
969
FTUS43 KLBF 251138
TAFLBF
TAF
KLBF 251138Z 2512/2612 00000KT P6SM BKN250
     FM251300 02005KT P6SM SCT250
     FM251600 06006KT P6SM SCT250
     FM252100 11009KT P6SM SCT060 SCT250
     FM260400 VRB04KT P6SM BKN200=

USA.gov is the U.S. government's official web portal to all federal, state and local government web resources and services.